PEV103 LOWW-LSZR
Flight info
| Callsign | PEV103 |
|---|---|
| Flight time | N/A |
| Altitude | 30000 |
| Route | SOVIL DCT SITNI DCT BAGSI DCT MATIG DCT TRAUN L856 KPT |
| Aircraft | E170/M-SDE2GHIRWXYZ/S |
Departure
| Time | N/A |
|---|---|
| Airport | Vienna International Airport (LOWW) |
Arrival
| Time | 2026-04-10 13:05 |
|---|---|
| Airport | Sankt Gallen Altenrhein Airport (LSZR) |
| Time | Latitude | Longitude | Altitude | Speed | Heading |
|---|---|---|---|---|---|
| 2026-04-10 12:36 | 47.95180 | 12.34015 | 30071 ft | 414 kts | 269° |
| 2026-04-10 12:37 | 47.94385 | 12.25572 | 30079 ft | 416 kts | 269° |
| 2026-04-10 12:37 | 47.93577 | 12.17097 | 30080 ft | 415 kts | 269° |
| 2026-04-10 12:38 | 47.92759 | 12.08654 | 30074 ft | 414 kts | 269° |
| 2026-04-10 12:38 | 47.91929 | 12.00151 | 30071 ft | 413 kts | 269° |
| 2026-04-10 12:39 | 47.91101 | 11.91729 | 30081 ft | 415 kts | 269° |
| 2026-04-10 12:39 | 47.90264 | 11.83293 | 30085 ft | 415 kts | 269° |
| 2026-04-10 12:40 | 47.89428 | 11.74867 | 30077 ft | 413 kts | 269° |
| 2026-04-10 12:40 | 47.88585 | 11.66407 | 30065 ft | 411 kts | 269° |
| 2026-04-10 12:41 | 47.87741 | 11.58001 | 30080 ft | 416 kts | 269° |
| 2026-04-10 12:41 | 47.86883 | 11.49520 | 30077 ft | 414 kts | 269° |
| 2026-04-10 12:42 | 47.86028 | 11.41165 | 29700 ft | 395 kts | 269° |
| 2026-04-10 12:42 | 47.85619 | 11.37155 | 29002 ft | 397 kts | 269° |
| 2026-04-10 12:42 | 47.85209 | 11.33189 | 28308 ft | 383 kts | 268° |
| 2026-04-10 12:42 | 47.84813 | 11.29356 | 27568 ft | 372 kts | 268° |
| 2026-04-10 12:43 | 47.84421 | 11.25570 | 26784 ft | 364 kts | 268° |
| 2026-04-10 12:43 | 47.84040 | 11.21913 | 26019 ft | 358 kts | 268° |
| 2026-04-10 12:43 | 47.83664 | 11.18300 | 25250 ft | 353 kts | 268° |
| 2026-04-10 12:43 | 47.83294 | 11.14770 | 24515 ft | 348 kts | 268° |
| 2026-04-10 12:44 | 47.82925 | 11.11238 | 23763 ft | 345 kts | 267° |
| 2026-04-10 12:44 | 47.82553 | 11.07728 | 23106 ft | 341 kts | 267° |
| 2026-04-10 12:44 | 47.82188 | 11.04297 | 22533 ft | 339 kts | 268° |
| 2026-04-10 12:44 | 47.81816 | 11.00809 | 21968 ft | 338 kts | 267° |
| 2026-04-10 12:45 | 47.81451 | 10.97411 | 21419 ft | 337 kts | 267° |
| 2026-04-10 12:45 | 47.81084 | 10.93984 | 20845 ft | 336 kts | 266° |
| 2026-04-10 12:45 | 47.80712 | 10.90530 | 20251 ft | 336 kts | 265° |
| 2026-04-10 12:45 | 47.80345 | 10.87134 | 19686 ft | 335 kts | 266° |
| 2026-04-10 12:46 | 47.79979 | 10.83752 | 19118 ft | 334 kts | 266° |
| 2026-04-10 12:46 | 47.79607 | 10.80335 | 18527 ft | 334 kts | 265° |
| 2026-04-10 12:46 | 47.79243 | 10.76983 | 17964 ft | 333 kts | 264° |
| 2026-04-10 12:46 | 47.78873 | 10.73604 | 17405 ft | 333 kts | 264° |
| 2026-04-10 12:47 | 47.78499 | 10.70194 | 16863 ft | 331 kts | 264° |
| 2026-04-10 12:47 | 47.78129 | 10.66831 | 16300 ft | 330 kts | 264° |
| 2026-04-10 12:47 | 47.77763 | 10.63504 | 15738 ft | 330 kts | 264° |
| 2026-04-10 12:47 | 47.77392 | 10.60148 | 15170 ft | 329 kts | 263° |
| 2026-04-10 12:48 | 47.77025 | 10.56841 | 14578 ft | 328 kts | 264° |
| 2026-04-10 12:48 | 47.76653 | 10.53491 | 14058 ft | 326 kts | 264° |
| 2026-04-10 12:48 | 47.76287 | 10.50199 | 13440 ft | 326 kts | 263° |
| 2026-04-10 12:48 | 47.75919 | 10.46911 | 12864 ft | 322 kts | 264° |
| 2026-04-10 12:49 | 47.75549 | 10.43622 | 12295 ft | 318 kts | 264° |
| 2026-04-10 12:49 | 47.75194 | 10.40453 | 11828 ft | 314 kts | 263° |
| 2026-04-10 12:49 | 47.74833 | 10.37242 | 11411 ft | 312 kts | 263° |
| 2026-04-10 12:49 | 47.74362 | 10.34127 | 10972 ft | 312 kts | 254° |
| 2026-04-10 12:50 | 47.73640 | 10.31174 | 10898 ft | 293 kts | 253° |
| 2026-04-10 12:50 | 47.72970 | 10.28457 | 10780 ft | 273 kts | 253° |
| 2026-04-10 12:50 | 47.72329 | 10.25849 | 10507 ft | 263 kts | 253° |
| 2026-04-10 12:50 | 47.71706 | 10.23316 | 10172 ft | 263 kts | 253° |
| 2026-04-10 12:51 | 47.71069 | 10.20733 | 9848 ft | 267 kts | 252° |
| 2026-04-10 12:51 | 47.70434 | 10.18159 | 9534 ft | 270 kts | 253° |
| 2026-04-10 12:51 | 47.69785 | 10.15534 | 9231 ft | 273 kts | 253° |
| 2026-04-10 12:51 | 47.69132 | 10.12900 | 8952 ft | 269 kts | 252° |
| 2026-04-10 12:52 | 47.68500 | 10.10351 | 8666 ft | 262 kts | 253° |
| 2026-04-10 12:52 | 47.67873 | 10.07825 | 8359 ft | 258 kts | 253° |
| 2026-04-10 12:52 | 47.67255 | 10.05364 | 8069 ft | 254 kts | 252° |
| 2026-04-10 12:52 | 47.66651 | 10.02927 | 7791 ft | 251 kts | 253° |
| 2026-04-10 12:53 | 47.66052 | 10.00511 | 7538 ft | 250 kts | 253° |
| 2026-04-10 12:53 | 47.65447 | 9.98076 | 7269 ft | 254 kts | 252° |
| 2026-04-10 12:53 | 47.65024 | 9.95533 | 6981 ft | 255 kts | 270° |
| 2026-04-10 12:53 | 47.65054 | 9.92931 | 6763 ft | 258 kts | 274° |
| 2026-04-10 12:54 | 47.65124 | 9.90238 | 6496 ft | 261 kts | 274° |
| 2026-04-10 12:54 | 47.65192 | 9.87532 | 6230 ft | 264 kts | 274° |
| 2026-04-10 12:54 | 47.65263 | 9.84831 | 5961 ft | 263 kts | 274° |
| 2026-04-10 12:54 | 47.65330 | 9.82117 | 5674 ft | 259 kts | 274° |
| 2026-04-10 12:55 | 47.65384 | 9.79490 | 5390 ft | 257 kts | 274° |
| 2026-04-10 12:55 | 47.65439 | 9.76836 | 5113 ft | 256 kts | 274° |
| 2026-04-10 12:55 | 47.65496 | 9.74214 | 5002 ft | 250 kts | 274° |
| 2026-04-10 12:55 | 47.65555 | 9.71659 | 4992 ft | 246 kts | 273° |
| 2026-04-10 12:56 | 47.65337 | 9.69165 | 4999 ft | 246 kts | 259° |
| 2026-04-10 12:56 | 47.64940 | 9.66668 | 4995 ft | 248 kts | 259° |
| 2026-04-10 12:56 | 47.64543 | 9.64172 | 4993 ft | 251 kts | 259° |
| 2026-04-10 12:56 | 47.64140 | 9.61615 | 4999 ft | 257 kts | 259° |
| 2026-04-10 12:57 | 47.63728 | 9.59009 | 5001 ft | 263 kts | 259° |
| 2026-04-10 12:57 | 47.63304 | 9.56363 | 4997 ft | 268 kts | 259° |
| 2026-04-10 12:57 | 47.62868 | 9.53647 | 4998 ft | 272 kts | 259° |
| 2026-04-10 12:57 | 47.62428 | 9.50890 | 4995 ft | 276 kts | 259° |
| 2026-04-10 12:58 | 47.61990 | 9.48114 | 4997 ft | 279 kts | 259° |
| 2026-04-10 12:58 | 47.61545 | 9.45295 | 4994 ft | 282 kts | 259° |
| 2026-04-10 12:58 | 47.61099 | 9.42471 | 4995 ft | 284 kts | 259° |
| 2026-04-10 12:58 | 47.60646 | 9.39611 | 4986 ft | 279 kts | 259° |
| 2026-04-10 12:59 | 47.60223 | 9.36898 | 4972 ft | 263 kts | 259° |
| 2026-04-10 12:59 | 47.59820 | 9.34334 | 4971 ft | 249 kts | 258° |
| 2026-04-10 12:59 | 47.59433 | 9.31878 | 4975 ft | 240 kts | 258° |
| 2026-04-10 12:59 | 47.59062 | 9.29519 | 4977 ft | 232 kts | 257° |
| 2026-04-10 13:00 | 47.58255 | 9.27538 | 4994 ft | 231 kts | 218° |
| 2026-04-10 13:00 | 47.56720 | 9.26795 | 5026 ft | 239 kts | 178° |
| 2026-04-10 13:00 | 47.55114 | 9.27456 | 5033 ft | 245 kts | 155° |
| 2026-04-10 13:00 | 47.53692 | 9.28816 | 4999 ft | 243 kts | 143° |
| 2026-04-10 13:01 | 47.52361 | 9.30299 | 5023 ft | 231 kts | 143° |
| 2026-04-10 13:01 | 47.51138 | 9.31724 | 4969 ft | 219 kts | 131° |
| 2026-04-10 13:01 | 47.50600 | 9.33686 | 4986 ft | 200 kts | 90° |
| 2026-04-10 13:01 | 47.50539 | 9.35694 | 4811 ft | 198 kts | 94° |
| 2026-04-10 13:02 | 47.50377 | 9.37698 | 4451 ft | 191 kts | 95° |
| 2026-04-10 13:02 | 47.50192 | 9.39594 | 4107 ft | 181 kts | 96° |
| 2026-04-10 13:02 | 47.50011 | 9.41341 | 3831 ft | 166 kts | 96° |
| 2026-04-10 13:02 | 47.49845 | 9.42957 | 3509 ft | 155 kts | 96° |
| 2026-04-10 13:03 | 47.49689 | 9.44461 | 3231 ft | 141 kts | 96° |
| 2026-04-10 13:03 | 47.49547 | 9.45826 | 2968 ft | 131 kts | 95° |
| 2026-04-10 13:03 | 47.49414 | 9.47126 | 2740 ft | 126 kts | 96° |
| 2026-04-10 13:03 | 47.49281 | 9.48402 | 2536 ft | 127 kts | 97° |
| 2026-04-10 13:04 | 47.49144 | 9.49705 | 2314 ft | 129 kts | 97° |
| 2026-04-10 13:04 | 47.49031 | 9.51019 | 2049 ft | 130 kts | 94° |
| 2026-04-10 13:04 | 47.48918 | 9.52307 | 1829 ft | 125 kts | 99° |
| 2026-04-10 13:04 | 47.48773 | 9.53562 | 1617 ft | 123 kts | 98° |
| 2026-04-10 13:05 | 47.48639 | 9.54796 | 1389 ft | 122 kts | 98° |
| 2026-04-10 13:05 | 47.48517 | 9.55944 | 1315 ft | 78 kts | 98° |
| 2026-04-10 13:05 | 47.48459 | 9.56507 | 1314 ft | 50 kts | 98° |
| 2026-04-10 13:05 | 47.48425 | 9.56822 | 1313 ft | 21 kts | 98° |
| 2026-04-10 13:06 | 47.48411 | 9.56966 | 1313 ft | 1 kts | 98° |
| 2026-04-10 13:06 | 47.48411 | 9.57001 | 1313 ft | 5 kts | 67° |
| 2026-04-10 13:06 | 47.48413 | 9.57054 | 1313 ft | 4 kts | 151° |
| 2026-04-10 13:06 | 47.48404 | 9.57018 | 1313 ft | 6 kts | 280° |
| 2026-04-10 13:07 | 47.48414 | 9.56934 | 1313 ft | 10 kts | 278° |
| 2026-04-10 13:07 | 47.48427 | 9.56805 | 1313 ft | 14 kts | 278° |
| 2026-04-10 13:07 | 47.48444 | 9.56641 | 1313 ft | 18 kts | 278° |
| 2026-04-10 13:07 | 47.48465 | 9.56440 | 1315 ft | 21 kts | 278° |
| 2026-04-10 13:08 | 47.48490 | 9.56207 | 1316 ft | 24 kts | 278° |
| 2026-04-10 13:08 | 47.48518 | 9.55940 | 1315 ft | 27 kts | 278° |
| 2026-04-10 13:08 | 47.48547 | 9.55660 | 1313 ft | 27 kts | 278° |
| 2026-04-10 13:09 | 47.48591 | 9.55329 | 1313 ft | 4 kts | 331° |
| 2026-04-10 13:09 | 47.48631 | 9.55328 | 1313 ft | 6 kts | 1° |
| 2026-04-10 13:09 | 47.48659 | 9.55276 | 1313 ft | 6 kts | 294° |
| 2026-04-10 13:09 | 47.48672 | 9.55247 | 1313 ft | 3 kts | 335° |
| 2026-04-10 13:10 | 47.48698 | 9.55250 | 1313 ft | 4 kts | 6° |
| 2026-04-10 13:10 | 47.48717 | 9.55253 | 1313 ft | 0 kts | 6° |